sensor_id;sensor_type;location;lat;lon;timestamp;temperature;humidity
2855;DHT22;1435;49.472;10.940;2023-02-27T00:04:20;0.60;99.90
2855;DHT22;1435;49.472;10.940;2023-02-27T00:09:21;0.50;99.90
2855;DHT22;1435;49.472;10.940;2023-02-27T00:14:23;0.40;99.90
2855;DHT22;1435;49.472;10.940;2023-02-27T00:19:26;0.40;99.90
2855;DHT22;1435;49.472;10.940;2023-02-27T00:24:28;0.40;99.90
2855;DHT22;1435;49.472;10.940;2023-02-27T00:29:30;0.40;99.90
2855;DHT22;1435;49.472;10.940;2023-02-27T00:34:33;0.40;99.90
2855;DHT22;1435;49.472;10.940;2023-02-27T00:39:35;0.40;99.90
2855;DHT22;1435;49.472;10.940;2023-02-27T00:44:36;0.40;99.90
2855;DHT22;1435;49.472;10.940;2023-02-27T00:49:41;0.50;99.90
2855;DHT22;1435;49.472;10.940;2023-02-27T00:54:43;0.40;99.90
2855;DHT22;1435;49.472;10.940;2023-02-27T00:59:44;0.40;99.90
2855;DHT22;1435;49.472;10.940;2023-02-27T01:04:48;0.40;99.90
2855;DHT22;1435;49.472;10.940;2023-02-27T01:09:49;0.50;99.90
2855;DHT22;1435;49.472;10.940;2023-02-27T01:14:51;0.50;99.90
2855;DHT22;1435;49.472;10.940;2023-02-27T01:19:54;0.50;99.90
2855;DHT22;1435;49.472;10.940;2023-02-27T01:24:56;0.50;99.90
2855;DHT22;1435;49.472;10.940;2023-02-27T01:29:58;0.50;99.90
2855;DHT22;1435;49.472;10.940;2023-02-27T01:35:01;0.50;99.90
2855;DHT22;1435;49.472;10.940;2023-02-27T01:40:04;0.50;99.90
2855;DHT22;1435;49.472;10.940;2023-02-27T01:45:24;0.50;99.90
2855;DHT22;1435;49.472;10.940;2023-02-27T01:50:29;0.40;99.90
2855;DHT22;1435;49.472;10.940;2023-02-27T01:55:34;0.40;99.90
2855;DHT22;1435;49.472;10.940;2023-02-27T02:00:37;0.30;99.90
2855;DHT22;1435;49.472;10.940;2023-02-27T02:05:41;0.20;99.90
2855;DHT22;1435;49.472;10.940;2023-02-27T02:10:44;0.20;99.90
2855;DHT22;1435;49.472;10.940;2023-02-27T02:15:52;0.20;99.90
2855;DHT22;1435;49.472;10.940;2023-02-27T02:21:35;0.20;99.90
2855;DHT22;1435;49.472;10.940;2023-02-27T02:26:52;0.20;99.90
2855;DHT22;1435;49.472;10.940;2023-02-27T02:37:54;0.10;99.90
2855;DHT22;1435;49.472;10.940;2023-02-27T02:43:07;0.10;99.90
2855;DHT22;1435;49.472;10.940;2023-02-27T02:48:13;0.00;99.90
2855;DHT22;1435;49.472;10.940;2023-02-27T02:53:26;-0.10;99.90
2855;DHT22;1435;49.472;10.940;2023-02-27T02:58:34;-0.30;99.90
2855;DHT22;1435;49.472;10.940;2023-02-27T03:03:40;-0.40;99.90
2855;DHT22;1435;49.472;10.940;2023-02-27T03:08:47;-0.50;99.90
2855;DHT22;1435;49.472;10.940;2023-02-27T03:13:55;-0.60;99.90
2855;DHT22;1435;49.472;10.940;2023-02-27T03:19:05;-0.70;99.90
2855;DHT22;1435;49.472;10.940;2023-02-27T03:24:12;-0.70;99.90
2855;DHT22;1435;49.472;10.940;2023-02-27T03:29:21;-0.70;99.90
2855;DHT22;1435;49.472;10.940;2023-02-27T03:34:29;-0.80;99.90
2855;DHT22;1435;49.472;10.940;2023-02-27T03:39:38;-0.80;99.90
2855;DHT22;1435;49.472;10.940;2023-02-27T03:44:52;-0.90;99.90
2855;DHT22;1435;49.472;10.940;2023-02-27T03:49:55;-0.90;99.90
2855;DHT22;1435;49.472;10.940;2023-02-27T03:55:00;-0.90;99.90
2855;DHT22;1435;49.472;10.940;2023-02-27T04:00:08;-0.90;99.90
2855;DHT22;1435;49.472;10.940;2023-02-27T04:05:11;-0.80;99.90
2855;DHT22;1435;49.472;10.940;2023-02-27T04:10:25;-0.80;99.90
2855;DHT22;1435;49.472;10.940;2023-02-27T04:15:42;-0.80;99.90
2855;DHT22;1435;49.472;10.940;2023-02-27T04:20:49;-0.70;99.90
2855;DHT22;1435;49.472;10.940;2023-02-27T04:26:04;-0.70;99.90
2855;DHT22;1435;49.472;10.940;2023-02-27T04:31:15;-0.70;99.90
2855;DHT22;1435;49.472;10.940;2023-02-27T04:36:23;-0.70;99.90
2855;DHT22;1435;49.472;10.940;2023-02-27T04:41:31;-0.70;99.90
2855;DHT22;1435;49.472;10.940;2023-02-27T04:46:38;-0.80;99.90
2855;DHT22;1435;49.472;10.940;2023-02-27T04:51:46;-0.80;99.90
2855;DHT22;1435;49.472;10.940;2023-02-27T04:56:52;-0.90;99.90
2855;DHT22;1435;49.472;10.940;2023-02-27T05:02:00;-1.00;99.90
2855;DHT22;1435;49.472;10.940;2023-02-27T05:07:04;-1.10;99.90
2855;DHT22;1435;49.472;10.940;2023-02-27T05:12:13;-1.20;99.90
2855;DHT22;1435;49.472;10.940;2023-02-27T05:17:21;-1.30;99.90
2855;DHT22;1435;49.472;10.940;2023-02-27T05:22:29;-1.40;99.90
2855;DHT22;1435;49.472;10.940;2023-02-27T05:27:38;-1.40;99.90
2855;DHT22;1435;49.472;10.940;2023-02-27T05:32:45;-1.50;99.90
2855;DHT22;1435;49.472;10.940;2023-02-27T05:37:50;-1.60;99.90
2855;DHT22;1435;49.472;10.940;2023-02-27T05:42:58;-1.70;99.90
2855;DHT22;1435;49.472;10.940;2023-02-27T05:48:05;-1.70;99.90
2855;DHT22;1435;49.472;10.940;2023-02-27T05:53:11;-1.70;99.90
2855;DHT22;1435;49.472;10.940;2023-02-27T05:58:17;-1.70;99.90
2855;DHT22;1435;49.472;10.940;2023-02-27T06:03:21;-1.60;99.90
2855;DHT22;1435;49.472;10.940;2023-02-27T06:08:23;-1.60;99.90
2855;DHT22;1435;49.472;10.940;2023-02-27T06:13:25;-1.60;99.90
2855;DHT22;1435;49.472;10.940;2023-02-27T06:18:28;-1.60;99.90
2855;DHT22;1435;49.472;10.940;2023-02-27T06:23:30;-1.60;99.90
2855;DHT22;1435;49.472;10.940;2023-02-27T06:28:32;-1.60;99.90
2855;DHT22;1435;49.472;10.940;2023-02-27T06:33:35;-1.60;99.90
2855;DHT22;1435;49.472;10.940;2023-02-27T06:38:37;-1.60;99.90
2855;DHT22;1435;49.472;10.940;2023-02-27T06:43:38;-1.50;99.90
2855;DHT22;1435;49.472;10.940;2023-02-27T06:48:41;-1.40;99.90
2855;DHT22;1435;49.472;10.940;2023-02-27T06:53:43;-1.40;99.90
2855;DHT22;1435;49.472;10.940;2023-02-27T06:58:45;-1.20;99.90
2855;DHT22;1435;49.472;10.940;2023-02-27T07:03:48;-1.10;99.90
2855;DHT22;1435;49.472;10.940;2023-02-27T07:08:50;-1.00;99.90
2855;DHT22;1435;49.472;10.940;2023-02-27T07:13:52;-0.90;99.90
2855;DHT22;1435;49.472;10.940;2023-02-27T07:18:55;-0.80;99.90
2855;DHT22;1435;49.472;10.940;2023-02-27T07:23:57;-0.70;99.90
2855;DHT22;1435;49.472;10.940;2023-02-27T07:28:58;-0.60;99.90
2855;DHT22;1435;49.472;10.940;2023-02-27T07:34:02;-0.60;99.90
2855;DHT22;1435;49.472;10.940;2023-02-27T07:39:04;-0.50;99.90
2855;DHT22;1435;49.472;10.940;2023-02-27T07:44:06;-0.40;99.90
2855;DHT22;1435;49.472;10.940;2023-02-27T07:49:09;-0.30;99.90
2855;DHT22;1435;49.472;10.940;2023-02-27T07:54:11;-0.10;99.90
2855;DHT22;1435;49.472;10.940;2023-02-27T07:59:13;-0.10;99.90
2855;DHT22;1435;49.472;10.940;2023-02-27T08:04:16;0.00;99.90
2855;DHT22;1435;49.472;10.940;2023-02-27T08:09:18;0.00;99.90
2855;DHT22;1435;49.472;10.940;2023-02-27T08:14:19;0.20;99.90
2855;DHT22;1435;49.472;10.940;2023-02-27T08:19:22;0.20;99.90
2855;DHT22;1435;49.472;10.940;2023-02-27T08:24:24;0.30;99.90
2855;DHT22;1435;49.472;10.940;2023-02-27T08:29:26;0.40;99.90
2855;DHT22;1435;49.472;10.940;2023-02-27T08:34:31;0.50;99.90
2855;DHT22;1435;49.472;10.940;2023-02-27T08:39:33;0.50;99.90
2855;DHT22;1435;49.472;10.940;2023-02-27T08:44:34;0.60;99.90
2855;DHT22;1435;49.472;10.940;2023-02-27T08:49:37;0.70;99.90
2855;DHT22;1435;49.472;10.940;2023-02-27T08:54:39;0.80;99.90
2855;DHT22;1435;49.472;10.940;2023-02-27T08:59:41;0.90;99.90
2855;DHT22;1435;49.472;10.940;2023-02-27T09:04:44;1.00;99.90
2855;DHT22;1435;49.472;10.940;2023-02-27T09:09:45;1.20;99.90
2855;DHT22;1435;49.472;10.940;2023-02-27T09:14:47;1.30;99.90
2855;DHT22;1435;49.472;10.940;2023-02-27T09:19:50;1.40;99.90
2855;DHT22;1435;49.472;10.940;2023-02-27T09:24:52;1.40;99.90
2855;DHT22;1435;49.472;10.940;2023-02-27T09:29:54;1.50;99.90
2855;DHT22;1435;49.472;10.940;2023-02-27T09:34:57;1.50;99.90
2855;DHT22;1435;49.472;10.940;2023-02-27T09:40:00;1.60;99.90
2855;DHT22;1435;49.472;10.940;2023-02-27T09:45:04;1.70;99.90
2855;DHT22;1435;49.472;10.940;2023-02-27T09:50:21;1.80;99.90
2855;DHT22;1435;49.472;10.940;2023-02-27T09:55:29;2.00;99.90
2855;DHT22;1435;49.472;10.940;2023-02-27T10:00:43;2.10;99.90
2855;DHT22;1435;49.472;10.940;2023-02-27T10:05:56;2.10;99.90
2855;DHT22;1435;49.472;10.940;2023-02-27T10:11:03;2.20;99.90
2855;DHT22;1435;49.472;10.940;2023-02-27T10:16:08;2.20;99.90
2855;DHT22;1435;49.472;10.940;2023-02-27T10:21:17;2.30;99.90
2855;DHT22;1435;49.472;10.940;2023-02-27T10:26:21;2.40;99.90
2855;DHT22;1435;49.472;10.940;2023-02-27T10:31:30;2.50;99.90
2855;DHT22;1435;49.472;10.940;2023-02-27T10:36:35;2.40;99.90
2855;DHT22;1435;49.472;10.940;2023-02-27T10:41:37;2.50;99.90
2855;DHT22;1435;49.472;10.940;2023-02-27T10:46:39;2.60;99.90
2855;DHT22;1435;49.472;10.940;2023-02-27T10:51:42;2.60;99.90
2855;DHT22;1435;49.472;10.940;2023-02-27T10:56:47;2.70;99.90
2855;DHT22;1435;49.472;10.940;2023-02-27T11:01:52;2.60;99.90
2855;DHT22;1435;49.472;10.940;2023-02-27T11:06:56;2.70;99.90
2855;DHT22;1435;49.472;10.940;2023-02-27T11:12:25;2.90;99.90
2855;DHT22;1435;49.472;10.940;2023-02-27T11:17:29;2.90;99.90
2855;DHT22;1435;49.472;10.940;2023-02-27T11:22:33;3.10;99.90
2855;DHT22;1435;49.472;10.940;2023-02-27T11:27:35;3.10;99.40
2855;DHT22;1435;49.472;10.940;2023-02-27T11:32:44;3.20;99.60
2855;DHT22;1435;49.472;10.940;2023-02-27T11:37:50;3.40;99.70
2855;DHT22;1435;49.472;10.940;2023-02-27T11:42:55;3.40;99.40
2855;DHT22;1435;49.472;10.940;2023-02-27T11:48:00;3.40;98.80
2855;DHT22;1435;49.472;10.940;2023-02-27T11:53:19;3.40;97.30
2855;DHT22;1435;49.472;10.940;2023-02-27T11:58:28;3.50;96.80
2855;DHT22;1435;49.472;10.940;2023-02-27T12:03:40;3.50;96.80
2855;DHT22;1435;49.472;10.940;2023-02-27T12:08:49;3.60;97.90
2855;DHT22;1435;49.472;10.940;2023-02-27T12:13:56;3.80;96.90
2855;DHT22;1435;49.472;10.940;2023-02-27T12:19:04;4.00;96.70
2855;DHT22;1435;49.472;10.940;2023-02-27T12:24:15;4.00;94.90
2855;DHT22;1435;49.472;10.940;2023-02-27T12:29:24;3.80;94.80
2855;DHT22;1435;49.472;10.940;2023-02-27T12:34:37;3.90;95.50
2855;DHT22;1435;49.472;10.940;2023-02-27T12:39:43;4.00;95.00
2855;DHT22;1435;49.472;10.940;2023-02-27T12:45:16;4.00;94.70
2855;DHT22;1435;49.472;10.940;2023-02-27T12:50:21;4.10;94.30
2855;DHT22;1435;49.472;10.940;2023-02-27T12:55:26;4.10;93.50
2855;DHT22;1435;49.472;10.940;2023-02-27T13:00:34;4.10;93.30
2855;DHT22;1435;49.472;10.940;2023-02-27T13:05:46;3.90;93.20
2855;DHT22;1435;49.472;10.940;2023-02-27T13:10:55;4.00;93.70
2855;DHT22;1435;49.472;10.940;2023-02-27T13:16:03;4.10;92.60
2855;DHT22;1435;49.472;10.940;2023-02-27T13:21:11;4.30;93.10
2855;DHT22;1435;49.472;10.940;2023-02-27T13:26:19;4.40;92.80
2855;DHT22;1435;49.472;10.940;2023-02-27T13:31:33;4.60;92.90
2855;DHT22;1435;49.472;10.940;2023-02-27T13:36:39;4.70;91.80
2855;DHT22;1435;49.472;10.940;2023-02-27T13:41:43;4.60;91.10
2855;DHT22;1435;49.472;10.940;2023-02-27T13:46:45;4.50;91.00
2855;DHT22;1435;49.472;10.940;2023-02-27T13:51:47;4.60;90.90
2855;DHT22;1435;49.472;10.940;2023-02-27T13:57:16;4.60;90.70
2855;DHT22;1435;49.472;10.940;2023-02-27T14:02:32;4.80;91.00
2855;DHT22;1435;49.472;10.940;2023-02-27T14:07:51;5.00;90.70
2855;DHT22;1435;49.472;10.940;2023-02-27T14:12:56;5.20;90.30
2855;DHT22;1435;49.472;10.940;2023-02-27T14:17:59;5.50;90.80
2855;DHT22;1435;49.472;10.940;2023-02-27T14:23:17;5.70;88.80
2855;DHT22;1435;49.472;10.940;2023-02-27T14:28:25;5.80;87.70
2855;DHT22;1435;49.472;10.940;2023-02-27T14:33:32;5.70;86.70
2855;DHT22;1435;49.472;10.940;2023-02-27T14:38:34;5.70;86.30
2855;DHT22;1435;49.472;10.940;2023-02-27T14:43:41;5.80;85.80
2855;DHT22;1435;49.472;10.940;2023-02-27T14:48:44;5.70;84.90
2855;DHT22;1435;49.472;10.940;2023-02-27T14:53:58;5.60;84.70
2855;DHT22;1435;49.472;10.940;2023-02-27T14:59:02;5.40;82.90
2855;DHT22;1435;49.472;10.940;2023-02-27T15:04:17;5.40;83.60
2855;DHT22;1435;49.472;10.940;2023-02-27T15:09:21;5.40;83.40
2855;DHT22;1435;49.472;10.940;2023-02-27T15:14:29;5.40;83.90
2855;DHT22;1435;49.472;10.940;2023-02-27T15:19:31;5.30;80.50
2855;DHT22;1435;49.472;10.940;2023-02-27T15:24:34;5.20;80.20
2855;DHT22;1435;49.472;10.940;2023-02-27T15:29:40;5.30;81.10
2855;DHT22;1435;49.472;10.940;2023-02-27T15:34:43;5.40;81.10
2855;DHT22;1435;49.472;10.940;2023-02-27T15:39:44;5.60;81.40
2855;DHT22;1435;49.472;10.940;2023-02-27T15:44:48;6.00;78.90
2855;DHT22;1435;49.472;10.940;2023-02-27T15:49:55;6.20;77.50
2855;DHT22;1435;49.472;10.940;2023-02-27T15:55:00;6.20;77.20
2855;DHT22;1435;49.472;10.940;2023-02-27T16:00:05;6.20;76.80
2855;DHT22;1435;49.472;10.940;2023-02-27T16:05:15;6.00;75.20
2855;DHT22;1435;49.472;10.940;2023-02-27T16:10:19;5.80;74.60
2855;DHT22;1435;49.472;10.940;2023-02-27T16:15:28;5.80;75.70
2855;DHT22;1435;49.472;10.940;2023-02-27T16:20:39;5.60;75.90
2855;DHT22;1435;49.472;10.940;2023-02-27T16:25:54;5.40;74.10
2855;DHT22;1435;49.472;10.940;2023-02-27T16:31:01;5.20;76.00
2855;DHT22;1435;49.472;10.940;2023-02-27T16:36:14;5.20;77.10
2855;DHT22;1435;49.472;10.940;2023-02-27T16:41:18;5.10;76.90
2855;DHT22;1435;49.472;10.940;2023-02-27T16:46:22;4.90;77.70
2855;DHT22;1435;49.472;10.940;2023-02-27T16:51:27;4.70;78.20
2855;DHT22;1435;49.472;10.940;2023-02-27T16:56:28;4.70;79.20
2855;DHT22;1435;49.472;10.940;2023-02-27T17:01:33;4.60;79.90
2855;DHT22;1435;49.472;10.940;2023-02-27T17:06:35;4.60;79.90
2855;DHT22;1435;49.472;10.940;2023-02-27T17:11:36;4.40;79.80
2855;DHT22;1435;49.472;10.940;2023-02-27T17:16:39;4.40;80.10
2855;DHT22;1435;49.472;10.940;2023-02-27T17:21:41;4.20;80.10
2855;DHT22;1435;49.472;10.940;2023-02-27T17:26:43;4.10;80.20
2855;DHT22;1435;49.472;10.940;2023-02-27T17:31:46;4.10;80.70
2855;DHT22;1435;49.472;10.940;2023-02-27T17:36:48;4.00;80.80
2855;DHT22;1435;49.472;10.940;2023-02-27T17:41:50;4.00;81.20
2855;DHT22;1435;49.472;10.940;2023-02-27T17:46:55;4.10;80.80
2855;DHT22;1435;49.472;10.940;2023-02-27T17:51:56;4.10;80.70
2855;DHT22;1435;49.472;10.940;2023-02-27T17:57:00;4.00;81.40
2855;DHT22;1435;49.472;10.940;2023-02-27T18:02:05;4.00;81.60
2855;DHT22;1435;49.472;10.940;2023-02-27T18:07:07;3.90;81.70
2855;DHT22;1435;49.472;10.940;2023-02-27T18:12:09;3.90;82.90
2855;DHT22;1435;49.472;10.940;2023-02-27T18:17:12;3.90;82.20
2855;DHT22;1435;49.472;10.940;2023-02-27T18:22:14;3.90;82.20
2855;DHT22;1435;49.472;10.940;2023-02-27T18:27:15;3.80;81.80
2855;DHT22;1435;49.472;10.940;2023-02-27T18:32:19;3.80;82.10
2855;DHT22;1435;49.472;10.940;2023-02-27T18:37:20;3.80;82.50
2855;DHT22;1435;49.472;10.940;2023-02-27T18:42:22;3.80;83.30
2855;DHT22;1435;49.472;10.940;2023-02-27T18:47:25;3.70;84.10
2855;DHT22;1435;49.472;10.940;2023-02-27T18:52:28;3.60;84.50
2855;DHT22;1435;49.472;10.940;2023-02-27T18:57:30;3.60;83.70
2855;DHT22;1435;49.472;10.940;2023-02-27T19:02:33;3.60;84.00
2855;DHT22;1435;49.472;10.940;2023-02-27T19:07:37;3.60;86.80
2855;DHT22;1435;49.472;10.940;2023-02-27T19:12:38;3.60;89.30
2855;DHT22;1435;49.472;10.940;2023-02-27T19:17:41;3.60;90.70
2855;DHT22;1435;49.472;10.940;2023-02-27T19:22:43;3.60;91.40
2855;DHT22;1435;49.472;10.940;2023-02-27T19:27:45;3.50;92.20
2855;DHT22;1435;49.472;10.940;2023-02-27T19:32:48;3.50;92.80
2855;DHT22;1435;49.472;10.940;2023-02-27T19:37:50;3.50;93.20
2855;DHT22;1435;49.472;10.940;2023-02-27T19:42:56;3.40;93.60
2855;DHT22;1435;49.472;10.940;2023-02-27T19:47:59;3.40;93.90
2855;DHT22;1435;49.472;10.940;2023-02-27T19:53:01;3.30;94.40
2855;DHT22;1435;49.472;10.940;2023-02-27T19:58:42;3.20;94.70
2855;DHT22;1435;49.472;10.940;2023-02-27T20:03:46;3.10;95.10
2855;DHT22;1435;49.472;10.940;2023-02-27T20:08:48;3.00;95.70
2855;DHT22;1435;49.472;10.940;2023-02-27T20:13:50;2.90;95.90
2855;DHT22;1435;49.472;10.940;2023-02-27T20:18:53;2.90;96.20
2855;DHT22;1435;49.472;10.940;2023-02-27T20:23:56;2.90;96.60
2855;DHT22;1435;49.472;10.940;2023-02-27T20:29:00;2.90;96.90
2855;DHT22;1435;49.472;10.940;2023-02-27T20:34:04;2.90;97.00
2855;DHT22;1435;49.472;10.940;2023-02-27T20:39:06;2.80;97.30
2855;DHT22;1435;49.472;10.940;2023-02-27T20:44:10;2.80;97.10
2855;DHT22;1435;49.472;10.940;2023-02-27T20:49:14;2.80;96.70
2855;DHT22;1435;49.472;10.940;2023-02-27T20:54:17;2.80;96.30
2855;DHT22;1435;49.472;10.940;2023-02-27T20:59:21;2.80;96.20
2855;DHT22;1435;49.472;10.940;2023-02-27T21:04:27;2.80;96.00
2855;DHT22;1435;49.472;10.940;2023-02-27T21:09:42;2.80;96.20
2855;DHT22;1435;49.472;10.940;2023-02-27T21:14:44;2.70;96.70
2855;DHT22;1435;49.472;10.940;2023-02-27T21:19:47;2.70;96.60
2855;DHT22;1435;49.472;10.940;2023-02-27T21:24:49;2.70;96.60
2855;DHT22;1435;49.472;10.940;2023-02-27T21:29:53;2.60;96.40
2855;DHT22;1435;49.472;10.940;2023-02-27T21:34:56;2.60;96.40
2855;DHT22;1435;49.472;10.940;2023-02-27T21:39:57;2.50;96.40
2855;DHT22;1435;49.472;10.940;2023-02-27T21:45:02;2.50;96.50
2855;DHT22;1435;49.472;10.940;2023-02-27T21:50:06;2.40;96.80
2855;DHT22;1435;49.472;10.940;2023-02-27T21:55:13;2.30;97.00
2855;DHT22;1435;49.472;10.940;2023-02-27T22:00:16;2.20;97.30
2855;DHT22;1435;49.472;10.940;2023-02-27T22:05:19;2.10;97.10
2855;DHT22;1435;49.472;10.940;2023-02-27T22:10:21;2.00;97.20
2855;DHT22;1435;49.472;10.940;2023-02-27T22:15:23;1.90;97.40
2855;DHT22;1435;49.472;10.940;2023-02-27T22:20:26;1.80;97.90
2855;DHT22;1435;49.472;10.940;2023-02-27T22:25:28;1.80;98.30
2855;DHT22;1435;49.472;10.940;2023-02-27T22:30:29;1.70;98.60
2855;DHT22;1435;49.472;10.940;2023-02-27T22:35:33;1.60;98.60
2855;DHT22;1435;49.472;10.940;2023-02-27T22:40:36;1.60;98.80
2855;DHT22;1435;49.472;10.940;2023-02-27T22:45:44;1.60;98.90
2855;DHT22;1435;49.472;10.940;2023-02-27T22:50:55;1.60;99.00
2855;DHT22;1435;49.472;10.940;2023-02-27T22:55:57;1.60;98.80
2855;DHT22;1435;49.472;10.940;2023-02-27T23:00:59;1.60;99.00
2855;DHT22;1435;49.472;10.940;2023-02-27T23:06:02;1.50;99.00
2855;DHT22;1435;49.472;10.940;2023-02-27T23:11:04;1.50;99.10
2855;DHT22;1435;49.472;10.940;2023-02-27T23:16:07;1.50;99.30
2855;DHT22;1435;49.472;10.940;2023-02-27T23:21:15;1.50;99.70
2855;DHT22;1435;49.472;10.940;2023-02-27T23:26:17;1.50;99.50
2855;DHT22;1435;49.472;10.940;2023-02-27T23:31:18;1.50;99.40
2855;DHT22;1435;49.472;10.940;2023-02-27T23:36:21;1.50;99.50
2855;DHT22;1435;49.472;10.940;2023-02-27T23:41:23;1.40;99.50
2855;DHT22;1435;49.472;10.940;2023-02-27T23:46:25;1.40;99.80
2855;DHT22;1435;49.472;10.940;2023-02-27T23:51:31;1.30;99.80
2855;DHT22;1435;49.472;10.940;2023-02-27T23:56:32;1.20;99.90
